createdAt,value
2017-07-01T00:00:48.136Z,99470.66
2017-07-01T00:03:16.095Z,99464.42
2017-07-01T00:05:43.530Z,99463.65
2017-07-01T00:08:11.771Z,99463.12
2017-07-01T00:10:41.262Z,99462.45
2017-07-01T00:13:08.689Z,99461.94
2017-07-01T00:15:36.153Z,99460.89
2017-07-01T00:18:03.929Z,99460.41
2017-07-01T00:20:31.392Z,99466.22
2017-07-01T00:22:59.108Z,99461.39
2017-07-01T00:25:26.643Z,99463.27
2017-07-01T00:27:54.627Z,99460.75
2017-07-01T00:30:22.090Z,99461.02
2017-07-01T00:32:49.893Z,99461.98
2017-07-01T00:35:18.015Z,99461.88
2017-07-01T00:37:45.444Z,99460.67
2017-07-01T00:40:12.871Z,99459.73
2017-07-01T00:42:40.381Z,99457.72
2017-07-01T00:45:08.148Z,99459.47
2017-07-01T00:47:35.671Z,99456.25
2017-07-01T00:50:03.550Z,99454.61
2017-07-01T00:52:31.459Z,99451.94
2017-07-01T00:54:59.002Z,99457.74
2017-07-01T00:57:26.432Z,99459.77
2017-07-01T00:59:56.023Z,99454.38
2017-07-01T01:02:24.952Z,99456.36
2017-07-01T01:04:54.291Z,99454.72
2017-07-01T01:07:21.704Z,99459.03
2017-07-01T01:09:49.486Z,99457.56
2017-07-01T01:12:16.967Z,99470.22
2017-07-01T01:14:44.919Z,99463.86
2017-07-01T01:17:12.568Z,99468.69
2017-07-01T01:19:40.098Z,99460.30
2017-07-01T01:22:07.854Z,99461.91
2017-07-01T01:24:35.306Z,99462.95
2017-07-01T01:27:02.739Z,99463.00
2017-07-01T01:29:30.474Z,99465.84
2017-07-01T01:31:57.943Z,99465.73
2017-07-01T01:34:25.359Z,99465.17
2017-07-01T01:36:52.880Z,99465.84
2017-07-01T01:39:20.911Z,99465.02
2017-07-01T01:41:48.378Z,99470.11
2017-07-01T01:44:16.252Z,99469.96
2017-07-01T01:46:43.666Z,99467.78
2017-07-01T01:49:11.670Z,99473.55
2017-07-01T01:51:39.074Z,99470.22
2017-07-01T01:54:06.848Z,99472.09
2017-07-01T01:56:34.335Z,99469.33
2017-07-01T01:59:01.755Z,99469.89
2017-07-01T02:01:29.299Z,99470.19
2017-07-01T02:03:56.767Z,99469.73
2017-07-01T02:06:25.808Z,99473.94
2017-07-01T02:08:55.707Z,99468.02
2017-07-01T02:11:23.157Z,99468.69
2017-07-01T02:13:50.612Z,99467.67
2017-07-01T02:16:28.256Z,99465.54
2017-07-01T02:18:55.702Z,99469.03
2017-07-01T02:21:31.707Z,99467.83
2017-07-01T02:23:59.134Z,99467.30
2017-07-01T02:26:26.559Z,99472.25
2017-07-01T02:28:57.714Z,99467.41
2017-07-01T02:31:25.494Z,99467.97
2017-07-01T02:34:01.656Z,99465.24
2017-07-01T02:36:32.034Z,99467.83
2017-07-01T02:38:59.459Z,99467.30
2017-07-01T02:41:26.890Z,99470.78
2017-07-01T02:43:54.320Z,99464.72
2017-07-01T02:46:22.790Z,99464.87
2017-07-01T02:48:58.999Z,99465.92
2017-07-01T02:51:27.570Z,99471.72
2017-07-01T02:53:55.327Z,99476.56
2017-07-01T02:56:47.554Z,99473.07
2017-07-01T02:59:22.753Z,99473.22
2017-07-01T03:02:00.670Z,99467.44
2017-07-01T03:04:28.318Z,99467.88
2017-07-01T03:06:56.128Z,99465.19
2017-07-01T03:09:23.569Z,99464.52
2017-07-01T03:11:50.993Z,99465.45
2017-07-01T03:14:20.153Z,99463.57
2017-07-01T03:16:47.786Z,99463.89
2017-07-01T03:19:15.643Z,99462.13
2017-07-01T03:21:43.076Z,99463.72
2017-07-01T03:24:10.496Z,99468.20
2017-07-01T03:26:37.930Z,99461.31
2017-07-01T03:29:13.188Z,99461.98
2017-07-01T03:31:40.998Z,99456.64
2017-07-01T03:34:09.083Z,99459.75
2017-07-01T03:36:39.293Z,99462.82
2017-07-01T03:39:18.370Z,99459.19
2017-07-01T03:42:01.955Z,99461.47
2017-07-01T03:44:54.027Z,99460.03
2017-07-01T03:47:40.059Z,99456.39
2017-07-01T03:50:13.971Z,99457.89
2017-07-01T03:52:41.403Z,99465.05
2017-07-01T03:55:09.026Z,99463.56
2017-07-01T03:57:51.036Z,99465.04
2017-07-01T04:00:18.657Z,99460.04
2017-07-01T04:02:46.098Z,99457.06
2017-07-01T04:05:13.797Z,99455.98
2017-07-01T04:07:51.861Z,99458.68
2017-07-01T04:10:19.278Z,99458.27
2017-07-01T04:12:47.004Z,99461.75
2017-07-01T04:15:18.164Z,99463.68
2017-07-01T04:17:46.462Z,99456.38
2017-07-01T04:20:14.286Z,99459.24
2017-07-01T04:22:44.986Z,99464.89
2017-07-01T04:25:14.774Z,99463.00
2017-07-01T04:27:44.534Z,99465.31
2017-07-01T04:30:12.892Z,99465.17
2017-07-01T04:32:40.691Z,99466.80
2017-07-01T04:35:08.504Z,99463.45
2017-07-01T04:37:39.495Z,99462.90
2017-07-01T04:40:18.732Z,99467.22
2017-07-01T04:43:15.930Z,99476.24
2017-07-01T04:46:01.103Z,99468.98
2017-07-01T04:48:28.879Z,99472.72
2017-07-01T04:54:28.007Z,99487.23
2017-07-01T04:57:11.736Z,99484.27
2017-07-01T04:59:49.111Z,99483.89
2017-07-01T05:02:16.666Z,99489.54
2017-07-01T05:04:48.930Z,99487.12
2017-07-01T05:07:28.185Z,99484.81
2017-07-01T05:10:20.002Z,99484.69
2017-07-01T05:12:47.463Z,99492.89
2017-07-01T05:15:35.863Z,99491.83
2017-07-01T05:18:03.286Z,99489.11
2017-07-01T05:20:47.129Z,99493.57
2017-07-01T05:23:22.636Z,99496.25
2017-07-01T05:25:56.251Z,99502.86
2017-07-01T05:28:25.486Z,99513.86
2017-07-01T05:31:04.366Z,99514.41
2017-07-01T05:33:41.548Z,99514.95
2017-07-01T05:36:10.919Z,99517.50
2017-07-01T05:38:44.484Z,99518.84
2017-07-01T05:41:12.951Z,99519.38
2017-07-01T05:43:46.230Z,99527.34
2017-07-01T05:46:14.339Z,99526.38
2017-07-01T05:49:14.336Z,99523.66
2017-07-01T05:51:47.400Z,99525.84
2017-07-01T05:54:22.282Z,99521.81
2017-07-01T05:56:50.095Z,99529.20
2017-07-01T05:59:28.156Z,99522.88
2017-07-01T06:01:55.969Z,99526.10
2017-07-01T06:04:31.032Z,99522.60
2017-07-01T06:06:58.485Z,99522.73
2017-07-01T06:09:49.155Z,99517.06
2017-07-01T06:12:30.923Z,99511.30
2017-07-01T06:15:01.007Z,99509.17
2017-07-01T06:17:34.331Z,99504.57
2017-07-01T06:20:01.834Z,99507.39
2017-07-01T06:22:36.686Z,99503.66
2017-07-01T06:25:04.130Z,99506.48
2017-07-01T06:27:31.553Z,99508.77
2017-07-01T06:30:10.910Z,99512.41
2017-07-01T06:32:50.002Z,99511.31
2017-07-01T06:35:26.531Z,99513.75
2017-07-01T06:41:32.802Z,99524.37
2017-07-01T06:44:06.107Z,99517.91
2017-07-01T06:46:34.389Z,99518.73
2017-07-01T06:49:02.600Z,99518.61
2017-07-01T06:51:30.022Z,99515.49
2017-07-01T06:54:14.172Z,99514.00
2017-07-01T06:56:41.588Z,99517.36
2017-07-01T06:59:09.020Z,99526.77
2017-07-01T07:01:36.438Z,99517.74
2017-07-01T07:04:03.883Z,99520.31
2017-07-01T07:06:31.305Z,99524.23
2017-07-01T07:09:08.987Z,99523.97
2017-07-01T07:11:36.393Z,99526.52
2017-07-01T07:14:03.858Z,99526.77
2017-07-01T07:16:31.299Z,99529.70
2017-07-01T07:18:58.938Z,99524.05
2017-07-01T07:21:26.990Z,99530.08
2017-07-01T07:23:54.417Z,99524.41
2017-07-01T07:26:28.394Z,99533.96
2017-07-01T07:28:55.829Z,99526.16
2017-07-01T07:31:23.854Z,99535.60
2017-07-01T07:33:52.153Z,99533.60
2017-07-01T07:36:20.144Z,99532.95
2017-07-01T07:38:48.126Z,99536.72
2017-07-01T07:41:15.575Z,99528.39
2017-07-01T07:43:42.985Z,99522.86
2017-07-01T07:46:10.664Z,99530.81
2017-07-01T07:48:38.094Z,99528.66
2017-07-01T07:51:06.999Z,99530.14
2017-07-01T07:53:34.947Z,99533.23
2017-07-01T07:56:02.974Z,99532.66
2017-07-01T07:58:30.403Z,99531.86
2017-07-01T08:00:59.039Z,99532.25
2017-07-01T08:03:26.988Z,99539.20
2017-07-01T08:05:54.402Z,99549.03
2017-07-01T08:08:22.248Z,99549.86
2017-07-01T08:10:49.697Z,99557.13
2017-07-01T08:13:17.112Z,99559.02
2017-07-01T08:15:44.688Z,99566.03
2017-07-01T08:18:12.566Z,99574.13
2017-07-01T08:20:39.991Z,99579.41
2017-07-01T08:23:07.419Z,99582.51
2017-07-01T08:25:35.464Z,99584.09
2017-07-01T08:28:03.180Z,99581.09
2017-07-01T08:30:33.048Z,99587.55
2017-07-01T08:33:00.466Z,99588.47
2017-07-01T08:35:27.887Z,99590.14
2017-07-01T08:37:55.463Z,99588.27
2017-07-01T08:40:27.082Z,99590.80
2017-07-01T08:42:54.559Z,99598.77
2017-07-01T08:45:22.002Z,99595.45
2017-07-01T08:47:49.922Z,99594.11
2017-07-01T08:50:17.802Z,99603.82
2017-07-01T08:52:49.966Z,99602.79
2017-07-01T08:55:17.740Z,99602.88
2017-07-01T08:57:45.154Z,99599.77
2017-07-01T09:00:12.575Z,99607.94
2017-07-01T09:02:39.991Z,99602.78
2017-07-01T09:05:07.555Z,99606.46
2017-07-01T09:07:35.175Z,99603.53
2017-07-01T09:10:02.593Z,99606.75
2017-07-01T09:12:30.007Z,99607.27
2017-07-01T09:14:57.436Z,99608.47
2017-07-01T09:17:25.357Z,99610.53
2017-07-01T09:19:53.562Z,99617.95
2017-07-01T09:22:21.850Z,99611.23
2017-07-01T09:24:49.280Z,99613.77
2017-07-01T09:27:17.738Z,99615.98
2017-07-01T09:29:45.592Z,99618.44
2017-07-01T09:32:14.006Z,99623.06
2017-07-01T09:34:41.682Z,99620.89
2017-07-01T09:37:09.616Z,99624.64
2017-07-01T09:39:39.379Z,99629.57
2017-07-01T09:42:07.179Z,99631.84
2017-07-01T09:44:35.267Z,99635.84
2017-07-01T09:47:06.258Z,99643.93
2017-07-01T09:49:33.688Z,99645.03
2017-07-01T09:52:01.723Z,99650.95
2017-07-01T09:54:29.250Z,99653.79
2017-07-01T09:56:56.670Z,99653.36
2017-07-01T09:59:24.648Z,99656.64
2017-07-01T10:01:52.890Z,99657.52
2017-07-01T10:04:20.407Z,99658.98
2017-07-01T10:06:47.827Z,99663.34
2017-07-01T10:09:15.503Z,99669.16
2017-07-01T10:11:43.523Z,99667.93
2017-07-01T10:14:10.931Z,99667.52
2017-07-01T10:16:38.369Z,99675.34
2017-07-01T10:19:05.828Z,99681.37
2017-07-01T10:21:33.248Z,99673.52
2017-07-01T10:24:01.034Z,99682.05
2017-07-01T10:26:31.631Z,99679.15
2017-07-01T10:28:59.049Z,99693.08
2017-07-01T10:31:26.472Z,99691.64
2017-07-01T10:33:53.878Z,99689.05
2017-07-01T10:36:21.830Z,99697.59
2017-07-01T10:38:59.915Z,99702.34
2017-07-01T10:41:28.587Z,99707.60
2017-07-01T10:44:00.123Z,99713.47
2017-07-01T10:46:34.840Z,99718.33
2017-07-01T10:49:02.707Z,99714.19
2017-07-01T10:51:30.127Z,99722.44
2017-07-01T10:53:57.587Z,99724.30
2017-07-01T10:56:25.716Z,99735.56
2017-07-01T10:58:53.234Z,99733.09
2017-07-01T11:01:27.630Z,99728.17
2017-07-01T11:03:56.066Z,99732.79
2017-07-01T11:06:23.802Z,99734.13
2017-07-01T11:08:53.995Z,99737.34
2017-07-01T11:11:23.894Z,99742.36
2017-07-01T11:13:51.330Z,99743.14
2017-07-01T11:16:18.882Z,99745.17
2017-07-01T11:18:46.304Z,99738.59
2017-07-01T11:21:14.346Z,99746.58
2017-07-01T11:23:42.093Z,99746.16
2017-07-01T11:26:09.502Z,99756.36
2017-07-01T11:28:37.033Z,99750.48
2017-07-01T11:31:04.887Z,99754.36
2017-07-01T11:33:32.657Z,99755.50
2017-07-01T11:36:00.085Z,99748.05
2017-07-01T11:38:27.991Z,99755.09
2017-07-01T11:40:55.419Z,99753.38
2017-07-01T11:43:22.827Z,99751.33
2017-07-01T11:45:50.413Z,99755.54
2017-07-01T11:48:18.458Z,99760.52
2017-07-01T11:50:46.213Z,99764.98
2017-07-01T11:53:13.742Z,99766.46
2017-07-01T11:55:41.163Z,99764.30
2017-07-01T11:58:08.570Z,99769.98
2017-07-01T12:00:35.996Z,99771.73
2017-07-01T12:03:03.647Z,99771.31
2017-07-01T12:05:31.971Z,99777.55
2017-07-01T12:07:59.393Z,99782.39
2017-07-01T12:10:27.777Z,99786.44
2017-07-01T12:12:55.741Z,99789.43
2017-07-01T12:15:23.176Z,99795.00
2017-07-01T12:17:50.614Z,99792.66
2017-07-01T12:20:18.032Z,99796.22
2017-07-01T12:22:45.451Z,99802.28
2017-07-01T12:25:12.921Z,99800.00
2017-07-01T12:27:42.947Z,99797.38
2017-07-01T12:30:11.109Z,99806.14
2017-07-01T12:32:38.523Z,99814.27
2017-07-01T12:35:05.942Z,99815.11
2017-07-01T12:37:33.371Z,99814.33
2017-07-01T12:40:00.795Z,99826.32
2017-07-01T12:42:34.535Z,99823.83
2017-07-01T12:45:01.973Z,99824.09
2017-07-01T12:47:29.387Z,99826.91
2017-07-01T12:49:57.167Z,99826.80
2017-07-01T12:52:24.654Z,99827.60
2017-07-01T12:54:53.684Z,99829.98
2017-07-01T12:57:21.554Z,99833.28
2017-07-01T12:59:52.774Z,99826.69
2017-07-01T13:02:20.452Z,99830.16
2017-07-01T13:04:47.890Z,99837.53
2017-07-01T13:07:15.361Z,99844.91
2017-07-01T13:09:42.772Z,99849.67
2017-07-01T13:12:11.190Z,99850.14
2017-07-01T13:14:38.603Z,99851.11
2017-07-01T13:17:06.024Z,99857.78
2017-07-01T13:19:33.501Z,99860.95
2017-07-01T13:22:00.923Z,99859.78
2017-07-01T13:24:28.360Z,99860.50
2017-07-01T13:26:56.525Z,99861.83
2017-07-01T13:29:23.946Z,99862.14
2017-07-01T13:31:51.385Z,99864.97
2017-07-01T13:34:18.809Z,99871.44
2017-07-01T13:36:46.255Z,99874.07
2017-07-01T13:39:14.708Z,99878.69
2017-07-01T13:41:42.180Z,99883.98
2017-07-01T13:44:09.605Z,99887.39
2017-07-01T13:46:37.062Z,99892.40
2017-07-01T13:49:04.483Z,99889.01
2017-07-01T13:51:32.292Z,99890.50
2017-07-01T13:54:09.471Z,99893.48
2017-07-01T13:56:36.914Z,99894.30
2017-07-01T13:59:04.359Z,99891.57
2017-07-01T14:01:31.818Z,99896.81
2017-07-01T14:03:59.304Z,99901.14
2017-07-01T14:06:26.770Z,99897.62
2017-07-01T14:08:54.364Z,99904.48
2017-07-01T14:11:21.783Z,99911.52
2017-07-01T14:13:49.234Z,99908.28
2017-07-01T14:16:17.177Z,99916.23
2017-07-01T14:18:44.954Z,99913.12
2017-07-01T14:21:12.408Z,99923.12
2017-07-01T14:23:39.816Z,99920.80
2017-07-01T14:26:07.230Z,99928.52
2017-07-01T14:28:34.658Z,99929.29
2017-07-01T14:31:03.945Z,99931.44
2017-07-01T14:33:31.386Z,99938.95
2017-07-01T14:35:59.446Z,99932.88
2017-07-01T14:38:26.873Z,99938.48
2017-07-01T14:41:02.100Z,99945.52
2017-07-01T14:43:30.399Z,99944.56
2017-07-01T14:45:58.121Z,99951.72
2017-07-01T14:48:25.545Z,99950.41
2017-07-01T14:50:52.967Z,99953.42
2017-07-01T14:53:21.301Z,99950.72
2017-07-01T14:55:48.714Z,99959.89
2017-07-01T14:58:16.437Z,99962.61
2017-07-01T15:00:44.851Z,99968.83
2017-07-01T15:03:14.627Z,99961.02
2017-07-01T15:05:42.055Z,99959.54
2017-07-01T15:08:15.779Z,99966.81
2017-07-01T15:10:44.418Z,99969.01
2017-07-01T15:13:11.839Z,99960.38
2017-07-01T15:15:40.117Z,99972.80
2017-07-01T15:18:07.767Z,99978.18
2017-07-01T15:20:36.064Z,99980.31
2017-07-01T15:23:03.922Z,99982.33
2017-07-01T15:25:31.492Z,99984.07
2017-07-01T15:27:58.902Z,99991.08
2017-07-01T15:30:26.647Z,99994.59
2017-07-01T15:32:54.382Z,99996.08
2017-07-01T15:35:21.820Z,99997.81
2017-07-01T15:37:49.235Z,99991.76
2017-07-01T15:40:16.650Z,99989.61
2017-07-01T15:42:44.827Z,99992.30
2017-07-01T15:45:13.352Z,99999.86
2017-07-01T15:47:40.794Z,99997.54
2017-07-01T15:50:08.326Z,100000.50
2017-07-01T15:52:35.767Z,100002.53
2017-07-01T15:55:06.489Z,100011.14
2017-07-01T15:57:33.917Z,100001.48
2017-07-01T16:00:01.811Z,100002.02
2017-07-01T16:02:29.603Z,100004.19
2017-07-01T16:16:27.019Z,100020.00
2017-07-01T16:18:54.599Z,100026.48
2017-07-01T16:21:22.035Z,100021.09
2017-07-01T16:23:49.458Z,100024.06
2017-07-01T16:26:16.890Z,100029.53
2017-07-01T16:28:44.389Z,100028.31
2017-07-01T16:31:12.009Z,100029.81
2017-07-01T16:33:39.451Z,100036.94
2017-07-01T16:36:06.991Z,100041.93
2017-07-01T16:38:34.434Z,100045.56
2017-07-01T16:41:01.864Z,100046.14
2017-07-01T16:43:29.654Z,100052.19
2017-07-01T17:00:20.293Z,100065.92
2017-07-01T17:02:47.733Z,100074.42
2017-07-01T17:05:15.922Z,100069.84
2017-07-01T17:07:44.082Z,100080.52
2017-07-01T17:10:11.965Z,100078.08
2017-07-01T17:12:39.854Z,100081.97
2017-07-01T17:15:07.276Z,100083.03
2017-07-01T17:17:34.897Z,100084.37
2017-07-01T17:20:02.326Z,100095.97
2017-07-01T17:22:30.356Z,100096.98
2017-07-01T17:24:57.927Z,100101.02
2017-07-01T17:27:25.386Z,100107.24
2017-07-01T17:29:53.135Z,100107.88
2017-07-01T17:32:20.671Z,100108.80
2017-07-01T17:34:48.101Z,100118.59
2017-07-01T17:37:15.958Z,100125.94
2017-07-01T17:39:43.382Z,100123.66
2017-07-01T17:42:11.549Z,100126.38
2017-07-01T17:44:39.010Z,100136.89
2017-07-01T17:47:06.432Z,100133.16
2017-07-01T17:49:34.180Z,100129.73
2017-07-01T17:52:01.603Z,100133.06
2017-07-01T17:54:29.033Z,100132.27
2017-07-01T17:56:56.463Z,100138.14
2017-07-01T17:59:23.903Z,100147.61
2017-07-01T18:01:51.352Z,100151.89
2017-07-01T18:04:18.770Z,100156.80
2017-07-01T18:06:46.191Z,100154.97
2017-07-01T18:09:13.618Z,100163.16
2017-07-01T18:11:41.042Z,100164.05
2017-07-01T18:14:08.662Z,100167.16
2017-07-01T18:16:36.081Z,100167.03
2017-07-01T18:19:03.500Z,100170.80
2017-07-01T18:21:32.270Z,100175.53
2017-07-01T18:23:59.690Z,100184.96
2017-07-01T18:26:27.299Z,100183.23
2017-07-01T18:28:54.718Z,100187.28
2017-07-01T18:31:24.134Z,100190.86
2017-07-01T18:33:53.892Z,100195.94
2017-07-01T18:36:21.310Z,100195.22
2017-07-01T18:38:49.525Z,100195.56
2017-07-01T18:41:17.374Z,100194.71
2017-07-01T18:43:44.811Z,100203.61
2017-07-01T18:46:12.707Z,100203.64
2017-07-01T18:48:40.128Z,100204.70
2017-07-01T18:51:07.807Z,100210.27
2017-07-01T18:53:35.267Z,100215.72
2017-07-01T18:56:03.174Z,100215.88
2017-07-01T18:58:31.152Z,100217.50
2017-07-01T19:00:58.590Z,100220.89
2017-07-01T19:03:26.323Z,100221.79
2017-07-01T19:05:53.790Z,100236.73
2017-07-01T19:08:21.367Z,100233.37
2017-07-01T19:10:48.807Z,100244.78
2017-07-01T19:13:16.252Z,100246.09
2017-07-01T19:15:43.823Z,100257.58
2017-07-01T19:18:11.287Z,100253.53
2017-07-01T19:20:38.718Z,100259.99
2017-07-01T19:23:06.151Z,100262.52
2017-07-01T19:25:34.530Z,100263.07
2017-07-01T19:28:01.979Z,100265.14
2017-07-01T19:30:29.454Z,100263.04
2017-07-01T19:32:56.874Z,100268.47
2017-07-01T19:35:24.312Z,100276.17
2017-07-01T19:37:51.741Z,100268.50
2017-07-01T19:40:22.374Z,100275.66
2017-07-01T19:42:50.991Z,100281.98
2017-07-01T19:45:19.144Z,100288.59
2017-07-01T19:47:46.602Z,100289.11
2017-07-01T19:50:14.027Z,100290.88
2017-07-01T19:52:41.618Z,100296.30
2017-07-01T19:55:11.694Z,100296.58
2017-07-01T19:57:39.934Z,100300.86
2017-07-01T20:00:07.366Z,100303.14
2017-07-01T20:02:36.569Z,100306.88
2017-07-01T20:05:04.104Z,100314.55
2017-07-01T20:07:31.524Z,100320.14
2017-07-01T20:09:59.960Z,100320.34
2017-07-01T20:12:27.394Z,100328.77
2017-07-01T20:14:56.545Z,100326.97
2017-07-01T20:17:26.533Z,100340.92
2017-07-01T20:19:55.127Z,100343.33
2017-07-01T20:22:25.046Z,100347.47
2017-07-01T20:24:52.892Z,100351.00
2017-07-01T20:27:24.492Z,100350.03
2017-07-01T20:29:52.294Z,100354.16
2017-07-01T20:32:19.781Z,100358.30
2017-07-01T20:34:49.339Z,100350.27
2017-07-01T20:37:17.627Z,100358.34
2017-07-01T20:39:45.076Z,100361.83
2017-07-01T20:42:12.499Z,100363.82
2017-07-01T20:44:40.948Z,100367.31
2017-07-01T20:47:08.713Z,100369.92
2017-07-01T20:49:37.255Z,100376.92
2017-07-01T20:52:04.860Z,100378.74
2017-07-01T20:54:34.847Z,100388.17
2017-07-01T20:57:02.295Z,100386.22
2017-07-01T20:59:29.736Z,100384.84
2017-07-01T21:01:57.159Z,100384.52
2017-07-01T21:04:24.573Z,100389.86
2017-07-01T21:06:52.179Z,100395.11
2017-07-01T21:09:20.252Z,100395.94
2017-07-01T21:11:48.140Z,100398.55
2017-07-01T21:14:15.976Z,100398.31
2017-07-01T21:16:43.413Z,100403.70
2017-07-01T21:19:11.559Z,100397.70
2017-07-01T21:21:39.152Z,100410.48
2017-07-01T21:24:08.922Z,100401.56
2017-07-01T21:26:36.342Z,100412.53
2017-07-01T21:29:03.892Z,100414.94
2017-07-01T21:31:32.000Z,100426.44
2017-07-01T21:34:01.407Z,100421.59
2017-07-01T21:36:30.592Z,100425.09
2017-07-01T21:38:59.956Z,100426.44
2017-07-01T21:41:27.369Z,100430.06
2017-07-01T21:43:55.256Z,100427.27
2017-07-01T21:46:23.447Z,100434.56
2017-07-01T21:48:50.862Z,100444.29
2017-07-01T21:51:18.463Z,100439.20
2017-07-01T21:53:45.901Z,100446.09
2017-07-01T21:56:14.290Z,100453.25
2017-07-01T21:58:41.912Z,100450.23
2017-07-01T22:01:09.618Z,100451.43
2017-07-01T22:03:37.067Z,100440.93
2017-07-01T22:06:05.490Z,100447.77
2017-07-01T22:08:33.264Z,100453.67
2017-07-01T22:11:01.634Z,100460.91
2017-07-01T22:13:29.511Z,100457.89
2017-07-01T22:15:56.931Z,100463.94
2017-07-01T22:18:27.595Z,100467.66
2017-07-01T22:21:11.311Z,100472.11
2017-07-01T22:23:39.064Z,100480.06
2017-07-01T22:26:08.371Z,100470.20
2017-07-01T22:28:36.021Z,100477.46
2017-07-01T22:31:03.445Z,100475.41
2017-07-01T22:33:30.865Z,100484.57
2017-07-01T22:35:58.414Z,100484.19
2017-07-01T22:38:26.359Z,100480.55
2017-07-01T22:40:53.780Z,100485.53
2017-07-01T22:43:21.654Z,100483.25
2017-07-01T22:45:49.093Z,100488.96
2017-07-01T22:48:16.522Z,100491.23
2017-07-01T22:50:43.961Z,100491.45
2017-07-01T22:53:11.401Z,100484.52
2017-07-01T22:55:38.820Z,100492.27
2017-07-01T22:58:08.758Z,100491.15
2017-07-01T23:00:38.534Z,100488.67
2017-07-01T23:03:05.953Z,100494.30
2017-07-01T23:05:34.159Z,100496.98
2017-07-01T23:08:04.717Z,100500.73
2017-07-01T23:10:32.288Z,100501.75
2017-07-01T23:13:00.088Z,100507.02
2017-07-01T23:15:28.407Z,100506.88
2017-07-01T23:17:55.828Z,100507.81
2017-07-01T23:20:23.451Z,100506.36
2017-07-01T23:22:50.891Z,100511.95
2017-07-01T23:25:18.323Z,100517.98
2017-07-01T23:27:45.994Z,100516.31
2017-07-01T23:30:14.354Z,100524.72
2017-07-01T23:32:41.803Z,100515.24
2017-07-01T23:35:09.257Z,100519.41
2017-07-01T23:37:37.186Z,100524.67
2017-07-01T23:40:04.610Z,100524.44
2017-07-01T23:42:35.107Z,100522.91
2017-07-01T23:45:03.050Z,100529.70
2017-07-01T23:47:30.823Z,100527.94
2017-07-01T23:49:58.429Z,100532.47
2017-07-01T23:52:25.862Z,100531.33
2017-07-01T23:54:53.298Z,100531.50
2017-07-01T23:57:20.890Z,100532.39
2017-07-01T23:59:48.310Z,100535.83
